Claycomo, Missouri
Current Conditions -  °F | °C
As of 12:54 AM on Thursday 23 Oct 2014 (Local Time) from KMKC Reporting Station
Broken Clouds Broken Clouds  
Wind Chill: 63°   Ceiling: 6000
Heat Index: 63°   Visibility: 10mi
Dew Point: 50°   Wind: 7mph
Humidity: 63%   Direction: 190°S
Pressure: 30.1"   Gusts: NA
Location:  39.2065°N, 94.5176°W
Report Text: KMKC 230554Z 19006KT 10SM BKN060 17/10 A3010 RMK AO2 SLP187 T01720100 10206 20167 402390128 58004
Loading
Personal Weather Stations






























Interactive Weather Map
Tropical Storm Tracking
New forecast layout! Learn more

10-Day Weather Forecast

Advertisements
Track Severe Weather on mobile